ADDS METAR Data INFO
IDs: Format: Raw Decoded Include TAF

Data at: 1937 UTC 17 Feb 2018

KJLN 171853Z 29010KT 10SM OVC017 07/04 A3011 RMK AO2 SLP200 T00670039
KJLN 171836Z 27014G21KT 10SM OVC015 06/04 A3011 RMK AO2 T00610039
KJLN 171755Z 28009KT 10SM OVC012 06/04 A3009 RMK AO2 T00560039
KJLN 171753Z 27010KT 10SM OVC009 06/04 A3009 RMK AO2 SLP194 60005 T00560044 10056 20028 51016
KJLN 171653Z 25011KT 10SM OVC007 04/04 A3009 RMK AO2 SLP194 T00440044
KJLN 171553Z 23009KT 8SM OVC005 04/04 A3008 RMK AO2 RAE1454 SLP188 P0000 T00390039
KJLN 171512Z 22007KT 4SM BR BKN005 OVC011 04/04 A3005 RMK AO2 RAE1454 P0000 T00390039
KJLN 171453Z 21007KT 2 1/2SM -RA BR BKN006 OVC010 04/04 A3004 RMK AO2 RAB1354 SLP178 P0005 60005 T00390039 53018
KJLN 171406Z 00000KT 1 1/2SM -RA BR OVC009 03/03 A3004 RMK AO2 RAB1354 CIG 006V010 P0001 T00330033
KJLN 171353Z VRB04KT 7SM OVC009 03/03 A3004 RMK AO2 PRESRR SLP176 T00330033
KJLN 171253Z 11008KT 7SM OVC007 03/03 A2998 RMK AO2 RAE21 CIG 006V011 SLP158 P0000 T00280028
KJLN 171211Z 01005KT 7SM -RA BKN008 OVC015 03/03 A3001 RMK AO2 P0000 T00280028
KJLN 171153Z 09004KT 4SM RA BR BKN012 OVC017 03/03 A2999 RMK AO2 SLP159 P0012 60028 70028 T00280028 10044 20022 56032
KJLN 171140Z AUTO 13006KT 4SM RA BR BKN014 OVC019 03/03 A3000 RMK AO2 P0010 T00280028
KJLN 171053Z AUTO 11004KT 7SM -RA BKN025 BKN030 OVC041 03/03 A3000 RMK AO2 SLP164 P0005 T00280028
KJLN 170953Z AUTO 14009KT 8SM -RA SCT035 BKN047 OVC070 03/02 A3004 RMK AO2 SLP178 P0010 T00280017
KJLN 170853Z AUTO 16006KT 8SM -RA BKN042 OVC049 03/01 A3009 RMK AO2 RAB23 SLP192 P0001 60001 T00330006 55024
KJLN 170753Z AUTO 15010KT 10SM OVC100 03/M02 A3008 RMK AO2 SLP189 T00331022
KJLN 170653Z AUTO 10005KT 10SM OVC110 03/M03 A3013 RMK AO2 SLP206 T00281028
KJLN 170553Z AUTO 12003KT 10SM CLR 02/M04 A3016 RMK AO2 SLP217 T00221039 10033 20022 401060006 56024
KJLN 170453Z AUTO 10005KT 10SM CLR 02/M04 A3018 RMK AO2 SLP226 T00221044
KJLN 170353Z AUTO 09007KT 10SM CLR 02/M05 A3021 RMK AO2 SLP235 T00221050
KJLN 170253Z 09006KT 10SM CLR 03/M06 A3023 RMK AO2 SLP244 T00281056 56022
KJLN 170153Z 07005KT 10SM CLR 03/M06 A3025 RMK AO2 SLP248 T00281056
KJLN 170053Z 05005KT 10SM CLR 03/M06 A3028 RMK AO2 SLP260 T00281056
KJLN 162353Z 04006KT 10SM CLR 03/M06 A3030 RMK AO2 SLP265 T00331056 10056 20028 58012
KJLN 162253Z 04006KT 10SM CLR 04/M05 A3031 RMK AO2 SLP270 T00391050
KJLN 162153Z 05007KT 10SM CLR 05/M04 A3032 RMK AO2 SLP272 T00501044
KJLN 162053Z VRB06KT 10SM CLR 04/M04 A3034 RMK AO2 SLP276 T00441039 56025
KJLN 161953Z 36011KT 10SM CLR 04/M04 A3036 RMK AO2 SLP284 T00441039
KJLN 161853Z 03010KT 10SM CLR 04/M04 A3038 RMK AO2 SLP292 T00391044
KJLN 161753Z 36014G21KT 10SM CLR 04/M04 A3041 RMK AO2 SLP301 T00391044 10039 20006 50008
KJLN 161653Z 36015G19KT 10SM CLR 03/M03 A3041 RMK AO2 SLP301 T00331033
KJLN 161553Z 02015G21KT 10SM FEW020 01/M04 A3040 RMK AO2 SLP295 T00111039
KJLN 161453Z 36016KT 10SM SCT021 01/M03 A3039 RMK AO2 SLP291 T00061033 52043
KJLN 161353Z 01014KT 10SM FEW019 01/M03 A3034 RMK AO2 SLP275 T00111028
KJLN 161319Z 36015G23KT 10SM SCT025 01/M03 A3032 RMK AO2 PRESRR T00111033
KJLN 161253Z 36015G27KT 10SM OVC024 02/M03 A3030 RMK AO2 PK WND 34029/1232 SLP260 T00171033
KJLN 161153Z 36016G22KT 10SM OVC018 03/M01 A3026 RMK AO2 PK WND 36026/1127 SLP245 60000 T00281006 10106 20028 51043
KJLN 161131Z AUTO 36013G26KT 10SM BKN017 OVC090 03/01 A3023 RMK AO2 PK WND 36026/1127 T00330006
KJLN 161053Z AUTO 36013G20KT 10SM SCT017 BKN085 04/01 A3021 RMK AO2 SLP227 T00390011
KJLN 160953Z AUTO 36017G28KT 10SM SCT017 OVC070 04/02 A3018 RMK AO2 PK WND 36030/0855 SLP217 T00440017
KJLN 160853Z AUTO 36021G30KT 10SM FEW019 OVC065 05/02 A3013 RMK AO2 PK WND 36032/0811 RAB34E42 SLP198 P0000 60000 T00500017 51054
KJLN 160753Z AUTO 36018G27KT 10SM OVC060 07/02 A3009 RMK AO2 PK WND 36027/0747 RAB01E48 SLP183 P0000 T00720022